Time;durP1;ratioP1;P1;durP2;ratioP2;P2;SDS_P1;SDS_P2;PMS_P1;PMS_P2;Temp;Humidity;BMP_temperature;BMP_pressure;BME280_temperature;BME280_humidity;BME280_pressure;Samples;Min_cycle;Max_cycle;Signal;HPM_P1;HPM_P2
2022/03/30 00:00:21;;;;;;;52.65;25.92;;;;;;;15.31;49.25;98737.25;5017357;28;20041;-87
2022/03/30 00:02:49;;;;;;;52.20;25.15;;;;;;;15.32;48.95;98732.75;5002287;28;20033;-86
2022/03/30 00:05:16;;;;;;;44.38;22.83;;;;;;;15.31;49.18;98729.22;5008425;28;20105;-86
2022/03/30 00:07:42;;;;;;;46.58;23.55;;;;;;;15.30;49.39;98732.94;5021133;28;20046;-86
2022/03/30 00:10:09;;;;;;;45.95;23.83;;;;;;;15.30;49.37;98730.28;5020569;28;20037;-87
2022/03/30 00:12:36;;;;;;;49.35;24.42;;;;;;;15.29;49.39;98731.31;5020725;28;20046;-86
2022/03/30 00:15:03;;;;;;;52.30;24.30;;;;;;;15.29;49.41;98731.31;4968904;28;20045;-86
2022/03/30 00:17:31;;;;;;;51.70;24.65;;;;;;;15.29;49.57;98727.78;5020010;28;20063;-87
2022/03/30 00:19:59;;;;;;;44.20;24.13;;;;;;;15.27;49.71;98725.31;4994419;28;20045;-86
2022/03/30 00:22:26;;;;;;;50.92;24.35;;;;;;;15.26;49.63;98723.63;5006870;28;20045;-85
2022/03/30 00:24:53;;;;;;;45.08;23.45;;;;;;;15.26;49.85;98723.63;5023530;28;20045;-86
2022/03/30 00:27:20;;;;;;;52.85;23.95;;;;;;;15.26;49.58;98718.28;5025999;28;20045;-86
2022/03/30 00:29:47;;;;;;;46.90;24.52;;;;;;;15.24;49.76;98715.00;5018047;28;20057;-86
2022/03/30 00:32:14;;;;;;;46.97;23.90;;;;;;;15.23;49.97;98707.97;5018550;28;20417;-87
2022/03/30 00:34:40;;;;;;;50.03;23.88;;;;;;;15.22;49.81;98706.34;4997426;28;20082;-87
2022/03/30 00:37:08;;;;;;;47.83;23.90;;;;;;;15.23;50.15;98707.97;5019173;28;20077;-86
2022/03/30 00:39:34;;;;;;;48.05;24.58;;;;;;;15.21;50.07;98699.31;5005421;28;20098;-87
2022/03/30 00:42:01;;;;;;;52.58;26.20;;;;;;;15.20;50.04;98698.50;5020801;28;20049;-86
2022/03/30 00:44:28;;;;;;;48.63;23.17;;;;;;;15.21;50.00;98696.66;5002883;28;20103;-86
2022/03/30 00:46:54;;;;;;;47.35;23.70;;;;;;;15.20;50.01;98695.81;5014418;28;20041;-86
2022/03/30 00:49:21;;;;;;;50.97;26.05;;;;;;;15.20;49.89;98692.34;5004936;28;20041;-85
2022/03/30 00:51:48;;;;;;;52.35;25.95;;;;;;;15.20;49.98;98684.31;5011883;28;20043;-86
2022/03/30 00:54:15;;;;;;;51.60;26.75;;;;;;;15.18;50.32;98689.84;5002750;28;20045;-86
2022/03/30 00:56:43;;;;;;;53.45;27.15;;;;;;;15.18;50.40;98684.50;5001435;28;20049;-86
2022/03/30 00:59:11;;;;;;;51.40;24.95;;;;;;;15.18;50.27;98689.03;5004719;28;20387;-87
2022/03/30 01:01:39;;;;;;;49.08;25.05;;;;;;;15.16;50.00;98691.06;5008376;28;20052;-87
2022/03/30 01:04:07;;;;;;;47.85;23.77;;;;;;;15.15;50.27;98689.41;5025605;28;20633;-86
2022/03/30 01:06:34;;;;;;;51.70;26.48;;;;;;;15.15;50.17;98686.75;5019299;28;20049;-86
2022/03/30 01:09:02;;;;;;;56.20;26.60;;;;;;;15.14;50.10;98683.25;5002412;28;20037;-86
2022/03/30 01:11:28;;;;;;;52.90;25.70;;;;;;;15.13;50.27;98678.06;5017245;28;20050;-86
2022/03/30 01:13:56;;;;;;;49.60;24.45;;;;;;;15.12;50.39;98679.09;5013427;28;20111;-86
2022/03/30 01:16:30;;;;;;;48.90;24.33;;;;;;;15.11;50.15;98680.09;5011990;28;20044;-87
2022/03/30 01:19:03;;;;;;;48.17;24.45;;;;;;;15.07;50.52;98677.00;5015215;28;20040;-87
2022/03/30 01:21:29;;;;;;;47.83;24.53;;;;;;;15.07;50.50;98670.84;5017353;28;20405;-87
2022/03/30 01:23:56;;;;;;;51.33;25.55;;;;;;;15.07;50.27;98666.31;4995142;28;20037;-86
2022/03/30 01:26:25;;;;;;;50.92;25.35;;;;;;;15.06;50.50;98663.81;5026118;28;20382;-87
2022/03/30 01:28:52;;;;;;;51.60;25.17;;;;;;;15.05;50.25;98664.84;5006477;28;20049;-87
2022/03/30 01:34:04;;;;;;;49.47;23.90;;;;;;;15.04;50.62;98655.19;4962458;28;20129;-87
2022/03/30 01:36:31;;;;;;;46.20;23.30;;;;;;;15.04;50.72;98649.84;5008617;28;20408;-86
2022/03/30 01:38:58;;;;;;;49.72;23.50;;;;;;;15.03;50.38;98658.88;4990679;28;20497;-86
2022/03/30 01:41:26;;;;;;;49.50;22.85;;;;;;;15.01;50.59;98644.88;5023815;28;20044;-87
2022/03/30 01:43:53;;;;;;;49.92;24.40;;;;;;;15.01;50.58;98647.53;5013221;28;20140;-87
2022/03/30 01:46:20;;;;;;;43.92;23.73;;;;;;;15.00;50.57;98646.72;5001709;28;20049;-87
2022/03/30 01:48:46;;;;;;;47.15;24.52;;;;;;;14.99;50.90;98637.06;5021987;28;20041;-87
2022/03/30 01:51:13;;;;;;;47.42;25.75;;;;;;;14.98;51.07;98638.91;5009153;28;20125;-87
2022/03/30 01:53:40;;;;;;;50.60;24.20;;;;;;;14.96;51.00;98630.25;5021468;28;20056;-87
2022/03/30 01:56:06;;;;;;;54.90;25.38;;;;;;;14.96;50.95;98632.91;4983638;28;20049;-87
2022/03/30 01:58:38;;;;;;;50.15;24.58;;;;;;;14.91;51.18;98630.00;5019527;28;20378;-87
2022/03/30 02:01:05;;;;;;;50.75;23.98;;;;;;;14.94;50.95;98631.47;5008159;28;20103;-87
2022/03/30 02:03:32;;;;;;;50.40;24.92;;;;;;;14.93;50.89;98632.47;5006889;28;20135;-86
2022/03/30 02:05:59;;;;;;;47.13;24.13;;;;;;;14.92;51.09;98623.63;5020033;28;20067;-87
2022/03/30 02:08:26;;;;;;;50.40;26.00;;;;;;;14.91;50.96;98624.66;5007089;28;20040;-87
2022/03/30 02:10:53;;;;;;;45.13;23.20;;;;;;;14.91;51.04;98621.16;5023858;28;20045;-87
2022/03/30 02:13:21;;;;;;;56.47;25.58;;;;;;;14.91;50.94;98621.16;5006449;28;20044;-87
2022/03/30 02:15:48;;;;;;;51.17;26.00;;;;;;;14.89;50.92;98617.84;5033688;28;20069;-87
2022/03/30 02:18:16;;;;;;;52.28;26.48;;;;;;;14.89;51.36;98617.84;5014017;28;20072;-87
2022/03/30 02:20:42;;;;;;;54.65;26.35;;;;;;;14.87;51.39;98620.69;4991591;28;20041;-86
2022/03/30 02:23:09;;;;;;;49.72;24.52;;;;;;;14.87;51.37;98618.03;5026079;28;20041;-87
2022/03/30 02:25:36;;;;;;;51.58;25.30;;;;;;;14.86;51.55;98611.03;4999020;28;20065;-87
2022/03/30 02:28:03;;;;;;;49.70;25.60;;;;;;;14.86;51.72;98602.22;5014589;28;20087;-87
2022/03/30 02:30:30;;;;;;;52.15;26.77;;;;;;;14.84;51.77;98602.38;5032612;28;20041;-87
2022/03/30 02:32:58;;;;;;;51.05;25.90;;;;;;;14.83;51.54;98607.91;4997090;28;20044;-86
2022/03/30 02:35:24;;;;;;;54.60;26.63;;;;;;;14.81;51.58;98602.78;4995558;28;20044;-86
2022/03/30 02:37:54;;;;;;;53.78;28.13;;;;;;;14.81;51.63;98596.59;5004133;28;20037;-87
2022/03/30 02:40:21;;;;;;;62.35;29.13;;;;;;;14.77;51.48;98594.31;5019561;28;20132;-87
2022/03/30 02:42:48;;;;;;;61.38;28.33;;;;;;;14.79;51.84;98594.13;4972004;28;20069;-87
2022/03/30 02:45:15;;;;;;;67.45;29.90;;;;;;;14.77;51.67;98586.28;5018598;28;20703;-85
2022/03/30 02:50:27;;;;;;;55.35;28.23;;;;;;;14.76;51.95;98578.47;4997283;28;20037;-87
2022/03/30 02:52:54;;;;;;;55.70;28.10;;;;;;;14.76;52.09;98575.81;5000275;28;20052;-87
2022/03/30 02:55:20;;;;;;;55.38;29.85;;;;;;;14.74;52.09;98570.66;5000120;28;20452;-87
2022/03/30 02:57:47;;;;;;;57.10;29.95;;;;;;;14.74;52.17;98565.31;5031143;28;20111;-86
2022/03/30 03:00:15;;;;;;;54.67;28.35;;;;;;;14.74;52.11;98569.84;5025346;28;20045;-87
2022/03/30 03:02:43;;;;;;;56.88;28.98;;;;;;;14.72;51.98;98567.34;4990723;28;20447;-87
2022/03/30 03:05:10;;;;;;;58.00;28.25;;;;;;;14.71;52.26;98564.88;5029580;28;20458;-86
2022/03/30 03:07:37;;;;;;;63.40;28.90;;;;;;;14.69;52.19;98557.03;5017366;28;21835;-87
2022/03/30 03:10:04;;;;;;;59.38;28.77;;;;;;;14.69;52.53;98562.38;5001779;28;20049;-87
2022/03/30 03:12:31;;;;;;;62.25;29.17;;;;;;;14.68;52.63;98562.56;5015110;28;20055;-87
2022/03/30 03:14:58;;;;;;;61.22;29.65;;;;;;;14.67;52.36;98559.06;5015285;28;20060;-84
2022/03/30 03:17:25;;;;;;;55.30;26.92;;;;;;;14.67;52.56;98558.25;5013161;28;20099;-86
2022/03/30 03:19:53;;;;;;;57.17;26.95;;;;;;;14.67;52.63;98555.59;5003833;28;20072;-86
2022/03/30 03:22:21;;;;;;;55.78;26.83;;;;;;;14.66;52.64;98552.09;5016833;28;20384;-86
2022/03/30 03:24:49;;;;;;;48.05;25.95;;;;;;;14.65;52.46;98549.59;5031910;28;20044;-86
2022/03/30 03:27:15;;;;;;;52.45;25.83;;;;;;;14.64;52.59;98539.94;5008998;28;20060;-86
2022/03/30 03:29:42;;;;;;;64.22;28.48;;;;;;;14.62;52.65;98545.47;5024972;28;20052;-86
2022/03/30 03:32:09;;;;;;;52.10;25.52;;;;;;;14.61;52.56;98540.34;5002605;28;20475;-86
2022/03/30 03:34:36;;;;;;;57.95;28.58;;;;;;;14.58;53.47;98532.69;5019352;28;20071;-86
2022/03/30 03:37:04;;;;;;;53.00;25.77;;;;;;;14.56;53.32;98537.44;5001751;28;20092;-85
2022/03/30 03:39:31;;;;;;;54.63;25.30;;;;;;;14.54;53.21;98533.09;5033889;28;20052;-86
2022/03/30 03:41:59;;;;;;;53.88;25.65;;;;;;;14.53;53.39;98528.78;5005286;28;20041;-86
2022/03/30 03:44:26;;;;;;;48.20;24.75;;;;;;;14.52;52.97;98527.06;5020064;28;20038;-86
2022/03/30 03:46:54;;;;;;;49.90;26.27;;;;;;;14.53;53.12;98522.59;5013883;28;20440;-84
2022/03/30 03:49:23;;;;;;;51.47;26.90;;;;;;;14.49;53.13;98519.44;5038808;28;20045;-84
2022/03/30 03:51:50;;;;;;;47.40;24.60;;;;;;;14.48;53.04;98517.81;4989126;28;20057;-85
2022/03/30 03:54:17;;;;;;;52.55;26.20;;;;;;;14.48;53.05;98517.00;5000161;28;20064;-85
2022/03/30 03:56:45;;;;;;;50.22;25.25;;;;;;;14.47;53.10;98520.66;4984494;28;20054;-86
2022/03/30 03:59:12;;;;;;;53.30;24.65;;;;;;;14.44;53.23;98513.84;4970735;28;20050;-87
2022/03/30 04:01:39;;;;;;;52.05;25.75;;;;;;;14.43;53.50;98506.88;4956487;28;20040;-86
2022/03/30 04:04:06;;;;;;;52.47;25.67;;;;;;;14.43;53.50;98514.88;4969456;28;20112;-86
2022/03/30 04:06:32;;;;;;;49.90;24.10;;;;;;;14.44;53.49;98511.19;5001944;28;20061;-86
2022/03/30 04:08:59;;;;;;;55.33;28.00;;;;;;;14.44;53.51;98510.38;4986852;28;20048;-87
2022/03/30 04:11:28;;;;;;;52.97;25.52;;;;;;;14.42;53.60;98515.88;4998997;28;20076;-84
2022/03/30 04:13:55;;;;;;;45.17;24.45;;;;;;;14.42;54.05;98507.06;4978278;28;20406;-86
2022/03/30 04:16:23;;;;;;;48.47;24.10;;;;;;;14.42;53.76;98513.22;4980804;28;20077;-86
2022/03/30 04:18:50;;;;;;;58.45;26.70;;;;;;;14.41;53.75;98510.75;5020552;28;20486;-85
2022/03/30 04:21:17;;;;;;;49.25;24.50;;;;;;;14.41;54.12;98511.59;4965197;28;20121;-86
2022/03/30 04:23:44;;;;;;;54.70;25.88;;;;;;;14.39;54.20;98508.28;5000205;28;20045;-86
2022/03/30 04:26:11;;;;;;;49.38;25.10;;;;;;;14.39;54.10;98507.44;4997987;28;20088;-85
2022/03/30 04:28:40;;;;;;;50.80;25.25;;;;;;;14.37;54.03;98510.31;4994273;28;20057;-85
2022/03/30 04:31:08;;;;;;;47.55;24.85;;;;;;;14.37;54.07;98504.13;4993594;28;20421;-86
2022/03/30 04:33:35;;;;;;;47.50;24.02;;;;;;;14.36;54.06;98503.31;4984559;28;20049;-86
2022/03/30 04:36:03;;;;;;;48.80;23.85;;;;;;;14.35;54.10;98496.34;4992309;28;20077;-86
2022/03/30 04:38:30;;;;;;;54.05;24.77;;;;;;;14.33;53.84;98501.03;4981616;28;23533;-87
2022/03/30 04:40:56;;;;;;;53.28;25.10;;;;;;;14.32;53.90;98494.88;5011006;28;20111;-87
2022/03/30 04:43:23;;;;;;;56.10;24.65;;;;;;;14.31;53.76;98501.22;5008611;28;20067;-88
2022/03/30 04:45:50;;;;;;;46.92;24.63;;;;;;;14.31;54.11;98501.22;4986750;28;20466;-87
2022/03/30 04:48:17;;;;;;;47.97;24.15;;;;;;;14.30;54.21;98499.59;5013701;28;20513;-88
2022/03/30 04:50:43;;;;;;;49.22;25.77;;;;;;;14.29;54.14;98497.09;5017655;28;20442;-87
2022/03/30 04:53:10;;;;;;;50.65;24.13;;;;;;;14.30;54.13;98504.09;4986833;28;20076;-88
2022/03/30 04:55:37;;;;;;;48.95;25.00;;;;;;;14.28;54.07;98501.63;4984581;28;20416;-87
2022/03/30 04:58:04;;;;;;;51.30;26.98;;;;;;;14.27;54.22;98502.66;5014466;28;20132;-87
2022/03/30 05:00:32;;;;;;;54.78;25.35;;;;;;;14.27;54.27;98504.47;5014155;28;20494;-87
2022/03/30 05:02:58;;;;;;;52.80;25.35;;;;;;;14.26;54.29;98502.81;5018306;28;20164;-88
2022/03/30 05:05:27;;;;;;;47.50;25.25;;;;;;;14.26;53.97;98503.66;5010414;28;20513;-88
2022/03/30 05:07:57;;;;;;;54.45;26.60;;;;;;;14.23;54.54;98506.69;4993805;28;20038;-87
2022/03/30 05:10:24;;;;;;;54.53;26.55;;;;;;;14.25;54.74;98510.00;5019093;28;20045;-87
2022/03/30 05:12:51;;;;;;;53.92;27.75;;;;;;;14.24;54.99;98512.88;5007386;28;20129;-88
2022/03/30 05:15:18;;;;;;;57.75;28.20;;;;;;;14.25;55.16;98511.88;4998754;28;20045;-87
2022/03/30 05:17:45;;;;;;;59.88;30.02;;;;;;;14.25;55.40;98512.69;5014539;28;20061;-84
2022/03/30 05:20:13;;;;;;;59.50;29.23;;;;;;;14.23;55.68;98512.03;4998336;28;20054;-88
2022/03/30 05:22:41;;;;;;;60.08;28.13;;;;;;;14.24;55.77;98515.53;5015610;28;20121;-87
2022/03/30 05:25:09;;;;;;;59.88;29.17;;;;;;;14.22;56.12;98529.09;5000028;28;20048;-88
2022/03/30 05:27:37;;;;;;;57.78;28.27;;;;;;;14.21;56.24;98518.59;5011365;28;20038;-87
2022/03/30 05:30:06;;;;;;;75.10;31.77;;;;;;;14.20;56.15;98525.78;5017221;28;20065;-87
2022/03/30 05:32:34;;;;;;;57.92;29.70;;;;;;;14.19;56.48;98526.78;5020931;28;20038;-87
2022/03/30 05:35:02;;;;;;;63.50;30.58;;;;;;;14.19;56.55;98524.09;5001338;28;20133;-87
2022/03/30 05:37:30;;;;;;;71.03;32.63;;;;;;;14.19;56.84;98524.09;5014254;28;20045;-86
2022/03/30 05:39:57;;;;;;;71.88;32.85;;;;;;;14.18;57.14;98525.13;5006538;28;20050;-87
2022/03/30 05:42:24;;;;;;;65.43;32.90;;;;;;;14.18;57.14;98518.97;5009093;28;20444;-87
2022/03/30 05:44:51;;;;;;;69.28;31.83;;;;;;;14.17;57.52;98520.84;5006157;28;20053;-87
2022/03/30 05:47:18;;;;;;;62.97;31.02;;;;;;;14.16;57.82;98523.69;5011494;28;20045;-87
2022/03/30 05:49:44;;;;;;;76.90;33.72;;;;;;;14.14;57.74;98521.19;5019340;28;20520;-87
2022/03/30 05:52:11;;;;;;;76.88;35.70;;;;;;;14.13;58.39;98518.72;4965930;28;20099;-86
2022/03/30 05:54:40;;;;;;;80.70;37.15;;;;;;;14.12;58.52;98509.91;5007043;28;20370;-86
2022/03/30 05:57:07;;;;;;;74.40;36.10;;;;;;;14.10;58.50;98512.75;5015748;28;20041;-87
2022/03/30 05:59:38;;;;;;;87.32;38.28;;;;;;;14.08;58.82;98514.78;5013479;28;20129;-86
2022/03/30 06:02:08;;;;;;;78.57;37.67;;;;;;;14.07;59.26;98510.47;5000386;28;20136;-87
2022/03/30 06:04:36;;;;;;;80.28;37.97;;;;;;;14.06;59.06;98514.13;5015440;28;20616;-87
2022/03/30 06:11:14;;;;;;;82.82;37.33;;;;;;;13.98;59.74;98516.13;4972751;28;20037;-87
2022/03/30 06:13:41;;;;;;;80.57;35.72;;;;;;;13.99;59.88;98515.09;5017294;28;20535;-87
2022/03/30 06:16:08;;;;;;;84.85;37.80;;;;;;;13.98;59.87;98516.13;5005514;28;20497;-86
2022/03/30 06:18:34;;;;;;;91.03;40.65;;;;;;;13.98;60.17;98521.44;5002536;28;20099;-86
2022/03/30 06:21:02;;;;;;;89.18;39.63;;;;;;;13.98;60.02;98513.44;5014878;28;20532;-87
2022/03/30 06:23:28;;;;;;;101.55;41.20;;;;;;;13.96;60.11;98520.81;4980324;28;20377;-86
2022/03/30 06:25:57;;;;;;;91.70;40.45;;;;;;;13.94;60.47;98515.66;5010515;28;20038;-86
2022/03/30 06:28:26;;;;;;;92.25;42.20;;;;;;;13.94;60.36;98515.66;5018881;28;20104;-86
2022/03/30 06:30:53;;;;;;;91.30;41.17;;;;;;;13.94;60.27;98512.97;5015723;28;20053;-86
2022/03/30 06:33:20;;;;;;;111.82;43.53;;;;;;;13.94;60.84;98515.66;5015036;28;20045;-87
2022/03/30 06:35:47;;;;;;;102.95;43.20;;;;;;;13.93;60.89;98514.00;4994005;28;20100;-87
2022/03/30 06:38:14;;;;;;;101.78;45.25;;;;;;;13.94;61.00;98518.31;4987794;28;20088;-86
2022/03/30 06:40:41;;;;;;;92.82;39.80;;;;;;;13.95;61.25;98516.50;5007718;28;20057;-87
2022/03/30 06:43:07;;;;;;;101.30;44.25;;;;;;;13.96;61.56;98521.63;5005686;28;20409;-86
2022/03/30 06:45:35;;;;;;;91.28;39.85;;;;;;;13.96;60.93;98518.97;4973701;28;20045;-86
2022/03/30 06:48:06;;;;;;;95.22;41.72;;;;;;;13.97;61.19;98509.94;4982559;28;20053;-87
2022/03/30 06:50:33;;;;;;;97.82;41.80;;;;;;;13.97;60.83;98509.09;5002156;28;20048;-86
2022/03/30 06:53:00;;;;;;;106.43;41.50;;;;;;;13.98;60.88;98510.78;5002642;28;20049;-85
2022/03/30 06:55:27;;;;;;;96.47;41.38;;;;;;;13.99;60.81;98507.94;5006607;28;20045;-86
2022/03/30 06:57:54;;;;;;;100.25;41.13;;;;;;;14.01;61.00;98510.38;5012796;28;20451;-87
2022/03/30 07:00:20;;;;;;;95.45;40.15;;;;;;;14.01;60.86;98511.22;5019957;28;20045;-85
2022/03/30 07:02:47;;;;;;;104.78;43.55;;;;;;;14.03;61.10;98503.84;5020850;28;20065;-87
2022/03/30 07:05:14;;;;;;;97.20;41.83;;;;;;;14.03;61.22;98506.50;5017233;28;20065;-86
2022/03/30 07:10:27;;;;;;;97.43;45.17;;;;;;;14.02;61.36;98496.03;4983814;28;20052;-87
2022/03/30 07:12:54;;;;;;;108.60;44.05;;;;;;;14.03;61.54;98500.34;5018407;28;20084;-86
2022/03/30 07:15:21;;;;;;;107.75;44.45;;;;;;;14.03;61.73;98500.34;5019697;28;20049;-87
2022/03/30 07:17:53;;;;;;;100.35;43.45;;;;;;;14.01;61.81;98495.19;5012031;28;20045;-87
2022/03/30 07:20:21;;;;;;;107.85;45.30;;;;;;;14.00;62.31;98493.56;4999025;28;20079;-87
2022/03/30 07:22:49;;;;;;;110.95;46.00;;;;;;;13.98;62.30;98492.91;5017158;28;20049;-86
2022/03/30 07:25:17;;;;;;;109.28;45.13;;;;;;;13.97;62.00;98493.09;5000480;28;20050;-86
2022/03/30 07:27:47;;;;;;;111.80;46.38;;;;;;;13.93;62.34;98487.31;4994349;28;20068;-85
2022/03/30 07:30:15;;;;;;;110.82;46.15;;;;;;;13.93;62.37;98487.31;5004188;28;20037;-87
2022/03/30 07:37:31;;;;;;;110.03;45.13;;;;;;;13.83;62.24;98484.13;5002902;28;20430;-86
2022/03/30 07:40:04;;;;;;;119.68;47.00;;;;;;;13.84;62.08;98488.44;5006840;28;20037;-87
2022/03/30 07:42:31;;;;;;;101.88;44.72;;;;;;;13.85;62.11;98484.78;5015991;28;20287;-86
2022/03/30 07:44:58;;;;;;;112.68;45.22;;;;;;;13.80;62.34;98476.53;5017993;28;20049;-87
2022/03/30 07:47:25;;;;;;;104.72;43.20;;;;;;;13.82;62.33;98477.16;5017354;28;20654;-87
2022/03/30 07:49:52;;;;;;;108.75;45.33;;;;;;;13.85;62.13;98479.44;5014659;28;20535;-87
2022/03/30 07:52:22;;;;;;;106.40;42.67;;;;;;;13.85;62.09;98479.44;4988014;28;20060;-87
2022/03/30 07:54:50;;;;;;;100.80;41.90;;;;;;;13.85;61.96;98469.59;5018246;28;20049;-87
2022/03/30 07:57:19;;;;;;;109.65;43.92;;;;;;;13.85;62.38;98476.78;5006966;28;20455;-86
2022/03/30 07:59:46;;;;;;;100.20;42.75;;;;;;;13.84;62.53;98478.63;4984063;28;20774;-86
2022/03/30 08:02:15;;;;;;;101.78;42.50;;;;;;;13.85;62.33;98476.78;5021098;28;20449;-87
2022/03/30 08:04:42;;;;;;;99.90;42.85;;;;;;;13.85;62.41;98480.25;5020962;28;20106;-87
2022/03/30 08:07:09;;;;;;;96.47;42.75;;;;;;;13.85;62.38;98477.59;4990396;28;20128;-85
2022/03/30 08:09:37;;;;;;;100.45;41.78;;;;;;;13.85;62.44;98484.78;4981585;28;20124;-87
2022/03/30 08:12:06;;;;;;;85.03;38.85;;;;;;;13.79;62.26;98480.19;4981926;28;20461;-86
2022/03/30 08:14:32;;;;;;;102.07;42.17;;;;;;;13.72;62.66;98480.13;5016303;28;20060;-86
2022/03/30 08:16:59;;;;;;;104.95;40.13;;;;;;;13.64;62.72;98473.06;5011330;28;20046;-87
2022/03/30 08:19:26;;;;;;;99.68;38.08;;;;;;;13.62;63.02;98471.63;5005925;28;20157;-86
2022/03/30 08:22:36;;;;;;;92.75;38.40;;;;;;;13.53;63.26;98478.88;5015501;28;20046;-87
2022/03/30 08:24:46;;;;;;;94.47;36.22;;;;;;;13.56;63.27;98469.69;4980030;28;20067;-86
2022/03/30 08:27:18;;;;;;;99.60;35.63;;;;;;;13.60;63.35;98476.31;5002221;28;20108;-87
2022/03/30 08:29:46;;;;;;;102.47;38.43;;;;;;;13.54;63.64;98467.22;5025617;28;20073;-86
2022/03/30 08:32:13;;;;;;;95.70;39.95;;;;;;;13.40;64.81;98471.56;5023461;28;20132;-84
2022/03/30 08:34:43;;;;;;;111.38;42.78;;;;;;;13.39;64.57;98471.75;5018543;28;20049;-87
2022/03/30 08:37:11;;;;;;;98.43;39.30;;;;;;;13.42;64.56;98480.19;5009724;28;20052;-86
2022/03/30 08:39:38;;;;;;;94.10;36.72;;;;;;;13.49;64.11;98476.81;5001611;28;20064;-86
2022/03/30 08:42:06;;;;;;;89.95;36.15;;;;;;;13.54;63.91;98477.88;4999430;28;20104;-86
2022/03/30 08:44:34;;;;;;;84.88;35.72;;;;;;;13.60;63.74;98474.47;5016583;28;20061;-87
2022/03/30 08:47:03;;;;;;;89.63;36.47;;;;;;;13.58;63.77;98475.66;5000928;28;20069;-86
2022/03/30 08:49:35;;;;;;;91.53;37.22;;;;;;;13.51;64.08;98475.59;5017905;28;20408;-86
2022/03/30 08:52:03;;;;;;;77.03;32.58;;;;;;;13.54;63.86;98471.75;5036327;28;20064;-87
2022/03/30 08:54:31;;;;;;;72.80;31.95;;;;;;;13.50;63.68;98476.59;5020987;28;20095;-86
2022/03/30 08:56:58;;;;;;;78.35;30.20;;;;;;;13.56;63.06;98477.69;5019655;28;20108;-86
2022/03/30 08:59:25;;;;;;;79.45;30.98;;;;;;;13.60;63.18;98473.63;5009286;28;20096;-86
2022/03/30 09:01:57;;;;;;;73.18;29.17;;;;;;;13.38;63.80;98478.09;4995253;28;20044;-86
2022/03/30 09:04:25;;;;;;;62.50;26.80;;;;;;;13.42;63.51;98466.88;5018312;28;20049;-87
2022/03/30 09:06:55;;;;;;;68.47;28.50;;;;;;;13.43;63.67;98473.03;5031705;28;20577;-87
2022/03/30 09:09:33;;;;;;;72.00;26.08;;;;;;;13.35;63.82;98471.28;4972875;28;20045;-86
2022/03/30 09:12:07;;;;;;;67.55;27.10;;;;;;;13.42;63.68;98480.19;4981095;28;20038;-86
2022/03/30 09:14:34;;;;;;;67.70;26.05;;;;;;;13.52;63.14;98471.09;4995781;28;20390;-86
2022/03/30 09:17:03;;;;;;;67.45;28.05;;;;;;;13.53;63.18;98472.72;4999305;28;20053;-86
2022/03/30 09:19:36;;;;;;;57.95;24.10;;;;;;;13.55;62.81;98476.88;4981917;28;20050;-86
2022/03/30 09:22:04;;;;;;;69.93;26.95;;;;;;;13.55;62.92;98482.19;4999396;28;20884;-87
2022/03/30 09:24:37;;;;;;;61.97;25.27;;;;;;;13.49;63.13;98474.13;4983419;28;20073;-86
2022/03/30 09:27:05;;;;;;;55.90;24.10;;;;;;;13.54;63.34;98471.75;4985094;28;20148;-87
2022/03/30 09:29:36;;;;;;;58.08;23.40;;;;;;;13.56;63.38;98472.34;4986318;28;20049;-86
2022/03/30 09:32:22;;;;;;;65.18;24.10;;;;;;;13.58;63.48;98467.66;5000056;28;20083;-85
2022/03/30 09:34:54;;;;;;;56.60;23.63;;;;;;;13.55;63.43;98462.72;5019075;28;20056;-85
2022/03/30 09:37:21;;;;;;;58.60;25.85;;;;;;;13.60;63.64;98463.78;4994790;28;22448;-86
2022/03/30 09:39:49;;;;;;;58.40;23.30;;;;;;;13.62;63.80;98468.94;5012462;28;20045;-86
2022/03/30 09:42:18;;;;;;;61.55;23.50;;;;;;;13.63;64.22;98467.91;5004346;28;20061;-85
2022/03/30 09:44:45;;;;;;;54.35;23.33;;;;;;;13.66;64.70;98464.88;5009794;28;20099;-85
2022/03/30 09:47:12;;;;;;;51.67;22.13;;;;;;;13.65;64.86;98466.72;5024263;28;20500;-86
2022/03/30 09:49:48;;;;;;;49.72;20.55;;;;;;;13.66;64.82;98465.72;5016805;28;20409;-86
2022/03/30 09:52:27;;;;;;;46.95;20.77;;;;;;;13.59;65.28;98464.00;4997842;28;20546;-85
2022/03/30 09:54:58;;;;;;;53.35;22.23;;;;;;;13.65;64.81;98457.91;4982492;28;20041;-86
2022/03/30 09:57:38;;;;;;;59.95;24.88;;;;;;;13.55;64.81;98455.53;5022556;28;20500;-85
2022/03/30 10:00:16;;;;;;;53.05;21.52;;;;;;;13.61;64.43;98451.28;4989827;28;20041;-84
2022/03/30 10:02:47;;;;;;;51.13;21.55;;;;;;;13.64;64.11;98453.59;5002151;28;20046;-86
2022/03/30 10:05:18;;;;;;;54.50;23.50;;;;;;;13.60;64.35;98447.78;4965245;28;20501;-86
2022/03/30 10:07:46;;;;;;;54.30;20.25;;;;;;;13.60;64.45;98454.97;5001405;28;20421;-84
2022/03/30 10:10:14;;;;;;;46.50;21.08;;;;;;;13.58;64.29;98441.81;5000753;28;20042;-86
2022/03/30 10:12:42;;;;;;;53.95;22.63;;;;;;;13.58;64.12;98446.31;5000155;28;20049;-85
2022/03/30 10:15:10;;;;;;;50.70;22.25;;;;;;;13.56;64.17;98438.53;5014035;28;20076;-85
2022/03/30 10:17:38;;;;;;;56.28;22.50;;;;;;;13.54;64.23;98435.22;5013252;28;20038;-86
2022/03/30 10:20:06;;;;;;;53.80;22.08;;;;;;;13.51;64.51;98432.94;4979763;28;20037;-86
2022/03/30 10:23:09;;;;;;;62.50;23.50;;;;;;;13.39;65.16;98431.78;5010609;28;20050;-86
2022/03/30 10:26:07;;;;;;;58.42;24.77;;;;;;;13.38;65.31;98430.09;4967974;28;20046;-85
2022/03/30 10:28:40;;;;;;;52.70;24.90;;;;;;;13.41;65.17;98424.41;4989564;28;20075;-86
2022/03/30 10:31:07;;;;;;;;;;;;;;;13.15;66.26;98423.06;5031388;28;20136;-85
2022/03/30 10:33:36;;;;;;;65.60;26.90;;;;;;;13.38;64.82;98414.09;5019607;28;20380;-86
2022/03/30 10:36:24;;;;;;;64.30;26.73;;;;;;;13.14;65.79;98413.41;5014960;28;20041;-85
2022/03/30 10:39:15;;;;;;;62.42;29.02;;;;;;;13.08;66.82;98410.66;4996104;28;20049;-85
2022/03/30 10:42:09;;;;;;;59.17;25.50;;;;;;;13.24;65.28;98413.94;4955792;28;20041;-86
2022/03/30 10:44:42;;;;;;;59.22;27.13;;;;;;;13.35;65.04;98414.50;5015087;28;20401;-85
2022/03/30 10:47:30;;;;;;;63.85;26.90;;;;;;;13.36;64.82;98410.81;5022701;28;20505;-85
2022/03/30 10:50:02;;;;;;;67.03;28.38;;;;;;;13.36;65.02;98418.81;4972132;28;20099;-85
2022/03/30 10:52:41;;;;;;;63.50;28.33;;;;;;;13.36;65.22;98413.50;5031675;28;20045;-85
2022/03/30 10:55:13;;;;;;;65.72;29.73;;;;;;;13.39;65.40;98413.09;4980162;28;20040;-85
2022/03/30 10:57:46;;;;;;;58.55;27.40;;;;;;;13.33;66.08;98421.84;5004392;28;20041;-85
2022/03/30 11:00:18;;;;;;;56.05;25.63;;;;;;;13.31;65.54;98408.72;4969133;28;20057;-85
2022/03/30 11:02:47;;;;;;;57.00;24.50;;;;;;;13.35;65.24;98411.81;5015837;28;20048;-86
2022/03/30 11:05:17;;;;;;;55.03;25.38;;;;;;;13.40;65.18;98409.41;4986775;28;20461;-85
2022/03/30 11:07:44;;;;;;;48.47;23.25;;;;;;;13.39;64.97;98397.94;5006784;28;20045;-84
2022/03/30 11:10:24;;;;;;;49.85;22.90;;;;;;;13.38;64.46;98404.28;5003366;28;20057;-85
2022/03/30 11:12:56;;;;;;;42.45;20.50;;;;;;;13.38;63.70;98403.44;5007313;28;20501;-85
2022/03/30 11:15:23;;;;;;;46.22;21.02;;;;;;;13.40;64.25;98396.09;5036398;28;20467;-85
2022/03/30 11:17:50;;;;;;;41.72;20.85;;;;;;;13.40;63.84;98393.41;5003786;28;20060;-84
2022/03/30 11:20:19;;;;;;;43.67;20.60;;;;;;;13.40;64.00;98388.09;5019767;28;20063;-85
2022/03/30 11:22:47;;;;;;;49.40;19.88;;;;;;;13.42;63.91;98386.06;5007450;28;20079;-85
2022/03/30 11:25:19;;;;;;;45.15;21.38;;;;;;;13.37;63.98;98391.97;5003360;28;20540;-85
2022/03/30 11:27:58;;;;;;;41.42;18.98;;;;;;;13.28;64.18;98394.91;4986308;28;20064;-85
2022/03/30 11:30:29;;;;;;;35.95;17.77;;;;;;;13.37;63.87;98399.13;4994315;28;20493;-85
2022/03/30 11:32:58;;;;;;;33.08;17.38;;;;;;;13.33;63.85;98397.84;4976907;28;20042;-85
2022/03/30 11:35:31;;;;;;;33.03;17.70;;;;;;;13.33;63.65;98396.03;5006202;28;20452;-85
2022/03/30 11:38:32;;;;;;;32.38;16.05;;;;;;;13.17;64.62;98386.38;4999507;28;20485;-84
2022/03/30 11:41:06;;;;;;;30.65;15.65;;;;;;;13.27;63.83;98390.63;4926158;28;20134;-85